Time;durP1;ratioP1;P1;durP2;ratioP2;P2;SDS_P1;SDS_P2;PMS_P1;PMS_P2;Temp;Humidity;BMP_temperature;BMP_pressure;BME280_temperature;BME280_humidity;BME280_pressure;Samples;Min_cycle;Max_cycle;Signal;HPM_P1;HPM_P2
2023/03/04 00:01:07;;;;;;;1.33;0.75;;;23.70;51.40;;;;;;5074415;28;20197;-59
2023/03/04 00:03:37;;;;;;;1.58;0.80;;;23.70;51.30;;;;;;5073907;28;20230;-61
2023/03/04 00:06:08;;;;;;;1.65;0.80;;;23.70;51.40;;;;;;5073930;28;20258;-57
2023/03/04 00:08:39;;;;;;;1.63;0.93;;;23.70;51.40;;;;;;5073771;28;20207;-61
2023/03/04 00:11:12;;;;;;;1.70;0.73;;;23.70;51.40;;;;;;5074139;28;20203;-59
2023/03/04 00:13:42;;;;;;;1.38;0.80;;;23.70;51.30;;;;;;5073980;28;20301;-60
2023/03/04 00:16:13;;;;;;;1.10;0.70;;;23.70;51.30;;;;;;5074572;28;20202;-58
2023/03/04 00:18:44;;;;;;;0.55;0.55;;;23.70;51.30;;;;;;5074311;28;20562;-60
2023/03/04 00:21:14;;;;;;;1.52;0.80;;;23.70;51.30;;;;;;5074287;28;20434;-58
2023/03/04 00:23:45;;;;;;;1.38;0.90;;;23.80;51.40;;;;;;5073628;28;20210;-58
2023/03/04 00:26:18;;;;;;;1.35;0.70;;;23.80;51.40;;;;;;5073501;28;20218;-61
2023/03/04 00:28:49;;;;;;;2.38;1.00;;;23.80;51.40;;;;;;5074373;28;20207;-59
2023/03/04 00:31:19;;;;;;;0.90;0.80;;;23.80;51.40;;;;;;5073964;28;20198;-59
2023/03/04 00:33:50;;;;;;;2.08;0.80;;;23.80;51.30;;;;;;5073670;28;20226;-59
2023/03/04 00:36:21;;;;;;;1.52;0.80;;;23.80;51.30;;;;;;5073858;28;20225;-61
2023/03/04 00:38:51;;;;;;;2.75;0.90;;;23.80;51.30;;;;;;5073953;28;20202;-60
2023/03/04 00:41:24;;;;;;;1.55;0.80;;;23.80;51.30;;;;;;5074116;28;20191;-60
2023/03/04 00:43:55;;;;;;;1.00;0.80;;;23.80;51.30;;;;;;5073508;28;20225;-60
2023/03/04 00:46:25;;;;;;;1.55;0.90;;;23.80;51.30;;;;;;5073602;28;20226;-60
2023/03/04 00:48:56;;;;;;;1.13;0.88;;;23.80;51.30;;;;;;5073666;28;20202;-59
2023/03/04 00:51:27;;;;;;;1.02;0.82;;;23.80;51.30;;;;;;5073580;28;20195;-61
2023/03/04 00:54:00;;;;;;;2.75;0.90;;;23.80;51.30;;;;;;5073733;28;20215;-61
2023/03/04 00:56:32;;;;;;;1.27;0.80;;;23.80;51.30;;;;;;5073765;28;20206;-58
2023/03/04 00:59:03;;;;;;;1.00;0.82;;;23.80;51.30;;;;;;5073751;28;20553;-59
2023/03/04 01:01:34;;;;;;;1.30;0.75;;;23.80;51.20;;;;;;5073502;28;20551;-61
2023/03/04 01:04:04;;;;;;;1.63;0.60;;;23.90;51.30;;;;;;5072826;28;20222;-57
2023/03/04 01:06:35;;;;;;;1.33;0.90;;;23.80;51.80;;;;;;5072934;28;20697;-61
2023/03/04 01:09:06;;;;;;;1.20;0.80;;;23.90;51.20;;;;;;5073159;28;20217;-58
2023/03/04 01:11:39;;;;;;;1.73;0.95;;;23.90;51.20;;;;;;5073275;28;20568;-60
2023/03/04 01:14:10;;;;;;;1.35;0.73;;;23.90;51.20;;;;;;5073926;28;20233;-59
2023/03/04 01:16:41;;;;;;;1.65;0.80;;;23.90;51.30;;;;;;5073359;28;20685;-60
2023/03/04 01:19:11;;;;;;;2.25;1.08;;;23.90;51.20;;;;;;5073461;28;20541;-61
2023/03/04 01:21:42;;;;;;;2.00;0.95;;;23.90;51.20;;;;;;5072983;28;20218;-60
2023/03/04 01:24:13;;;;;;;1.42;1.08;;;23.90;51.20;;;;;;5073275;28;20222;-61
2023/03/04 01:26:45;;;;;;;1.30;0.82;;;23.90;51.30;;;;;;5072531;28;20226;-61
2023/03/04 01:29:16;;;;;;;1.35;0.90;;;23.90;51.20;;;;;;5072476;28;20194;-60
2023/03/04 01:31:47;;;;;;;1.00;0.80;;;23.90;51.20;;;;;;5072972;28;20226;-59
2023/03/04 01:34:17;;;;;;;2.00;1.10;;;23.90;51.30;;;;;;5072463;28;20215;-61
2023/03/04 01:36:48;;;;;;;3.08;1.10;;;23.90;51.20;;;;;;5072097;28;20199;-58
2023/03/04 01:39:18;;;;;;;1.35;0.73;;;23.90;51.20;;;;;;5072962;28;20198;-57
2023/03/04 01:41:51;;;;;;;1.48;0.90;;;23.90;51.20;;;;;;5072443;28;20206;-58
2023/03/04 01:44:22;;;;;;;1.35;0.77;;;23.90;51.20;;;;;;5072372;28;20215;-60
2023/03/04 01:46:57;;;;;;;1.67;0.80;;;23.90;51.20;;;;;;5071909;28;20722;-60
2023/03/04 01:49:27;;;;;;;1.92;0.82;;;23.90;51.20;;;;;;5072117;28;20204;-61
2023/03/04 01:51:58;;;;;;;2.00;1.00;;;23.90;51.20;;;;;;5071904;28;20639;-58
2023/03/04 01:54:29;;;;;;;1.40;1.10;;;23.90;51.20;;;;;;5072045;28;20226;-60
2023/03/04 01:57:02;;;;;;;1.83;1.00;;;23.90;51.20;;;;;;5072231;28;20694;-59
2023/03/04 01:59:34;;;;;;;1.50;0.90;;;23.90;51.20;;;;;;5071667;28;20203;-61
2023/03/04 02:02:04;;;;;;;1.92;0.90;;;23.90;51.20;;;;;;5071781;28;20202;-62
2023/03/04 02:04:36;;;;;;;1.48;0.98;;;24.00;51.20;;;;;;5071706;28;20226;-60
2023/03/04 02:07:07;;;;;;;1.30;0.70;;;23.90;51.10;;;;;;5071302;28;20709;-59
2023/03/04 02:09:38;;;;;;;2.15;0.93;;;24.00;51.20;;;;;;5072172;28;20198;-58
2023/03/04 02:12:20;;;;;;;1.20;0.80;;;23.90;51.20;;;;;;5071918;28;20701;-60
2023/03/04 02:14:50;;;;;;;2.10;0.90;;;24.00;51.30;;;;;;5071648;28;20558;-61
2023/03/04 02:17:27;;;;;;;1.52;0.70;;;24.00;51.30;;;;;;5072500;28;20194;-63
2023/03/04 02:20:04;;;;;;;1.23;0.82;;;24.00;51.20;;;;;;5071769;28;20194;-59
2023/03/04 02:22:37;;;;;;;2.97;1.10;;;24.00;51.20;;;;;;5071594;28;20210;-59
2023/03/04 02:25:12;;;;;;;3.25;1.08;;;24.00;51.20;;;;;;5071852;28;20206;-59
2023/03/04 02:27:45;;;;;;;3.30;0.90;;;24.00;51.30;;;;;;5071297;28;20222;-59
2023/03/04 02:30:16;;;;;;;1.77;0.90;;;24.00;51.30;;;;;;5071638;28;20650;-60
2023/03/04 02:32:47;;;;;;;2.88;1.00;;;24.00;51.30;;;;;;5071293;28;20647;-59
2023/03/04 02:35:19;;;;;;;2.17;0.90;;;23.90;51.40;;;;;;5071176;28;20198;-59
2023/03/04 02:37:50;;;;;;;2.67;1.02;;;23.90;51.30;;;;;;5071368;28;20199;-59
2023/03/04 02:40:29;;;;;;;3.25;1.10;;;24.00;51.30;;;;;;5071396;28;20198;-58
2023/03/04 02:43:03;;;;;;;1.90;0.77;;;23.90;51.30;;;;;;5071215;28;20222;-58
2023/03/04 02:45:42;;;;;;;1.77;1.10;;;24.00;51.40;;;;;;5071304;28;20568;-58
2023/03/04 02:48:14;;;;;;;1.52;0.98;;;24.00;51.40;;;;;;5071289;28;20230;-58
2023/03/04 02:50:46;;;;;;;2.67;1.08;;;23.90;51.30;;;;;;5071240;28;20537;-59
2023/03/04 02:53:17;;;;;;;2.50;1.10;;;23.90;51.40;;;;;;5071487;28;20214;-60
2023/03/04 02:55:48;;;;;;;2.70;0.95;;;24.00;51.40;;;;;;5071298;28;20199;-59
2023/03/04 02:58:20;;;;;;;2.15;0.95;;;24.00;51.40;;;;;;5071287;28;20205;-57
2023/03/04 03:00:51;;;;;;;2.58;1.23;;;24.00;51.40;;;;;;5051556;28;20195;-58
2023/03/04 03:03:22;;;;;;;2.60;1.20;;;23.90;51.40;;;;;;5066786;28;20238;-59
2023/03/04 03:05:52;;;;;;;2.53;1.20;;;24.00;51.40;;;;;;5071102;28;20199;-58
2023/03/04 03:08:23;;;;;;;2.90;1.30;;;23.90;51.40;;;;;;5071040;28;20233;-57
2023/03/04 03:10:54;;;;;;;3.08;1.10;;;23.90;51.40;;;;;;5071213;28;20194;-58
2023/03/04 03:13:27;;;;;;;2.25;1.10;;;23.90;51.40;;;;;;5071955;28;20214;-55
2023/03/04 03:15:58;;;;;;;2.22;1.00;;;23.90;51.40;;;;;;5071559;28;20198;-57
2023/03/04 03:18:29;;;;;;;2.13;1.00;;;23.90;51.40;;;;;;5071358;28;20281;-58
2023/03/04 03:20:59;;;;;;;2.35;1.15;;;23.90;51.40;;;;;;5071019;28;20195;-56
2023/03/04 03:23:30;;;;;;;1.40;0.90;;;23.90;51.40;;;;;;5070635;28;20218;-56
2023/03/04 03:26:01;;;;;;;1.63;0.90;;;23.90;51.40;;;;;;5070879;28;20210;-58
2023/03/04 03:28:33;;;;;;;2.58;1.00;;;23.90;51.50;;;;;;5069823;28;20623;-59
2023/03/04 03:31:04;;;;;;;2.83;0.90;;;23.90;51.50;;;;;;5070963;28;20198;-58
2023/03/04 03:33:35;;;;;;;1.92;1.00;;;23.90;51.50;;;;;;5070715;28;20219;-58
2023/03/04 03:36:06;;;;;;;1.20;1.02;;;23.90;51.50;;;;;;5071411;28;20198;-58
2023/03/04 03:38:37;;;;;;;2.63;1.27;;;23.90;51.50;;;;;;5070915;28;20583;-58
2023/03/04 03:41:08;;;;;;;2.55;1.15;;;23.90;51.50;;;;;;5071410;28;20205;-58
2023/03/04 03:43:40;;;;;;;2.30;1.23;;;23.90;51.50;;;;;;5071001;28;20222;-58
2023/03/04 03:46:11;;;;;;;2.22;1.10;;;23.90;51.50;;;;;;5071126;28;20217;-55
2023/03/04 03:48:42;;;;;;;1.75;1.08;;;23.90;51.60;;;;;;5070945;28;20240;-57
2023/03/04 03:51:12;;;;;;;2.25;1.25;;;23.90;51.60;;;;;;5070838;28;20198;-55
2023/03/04 03:53:43;;;;;;;2.45;1.00;;;23.80;51.60;;;;;;5070089;28;20222;-55
2023/03/04 03:56:14;;;;;;;1.30;1.13;;;23.90;51.70;;;;;;5070794;28;20209;-57
2023/03/04 03:58:46;;;;;;;1.67;1.02;;;23.80;51.70;;;;;;5070643;28;20199;-58
2023/03/04 04:01:17;;;;;;;1.65;1.00;;;23.80;51.70;;;;;;5071009;28;20662;-57
2023/03/04 04:03:47;;;;;;;1.88;1.20;;;23.80;51.70;;;;;;5070712;28;20583;-57
2023/03/04 04:06:18;;;;;;;2.30;1.05;;;23.80;51.70;;;;;;5070911;28;20195;-57
2023/03/04 04:08:49;;;;;;;2.63;1.05;;;23.80;51.70;;;;;;5070549;28;20230;-55
2023/03/04 04:11:20;;;;;;;1.45;0.88;;;23.80;51.70;;;;;;5071163;28;20596;-55
2023/03/04 04:13:52;;;;;;;1.98;1.00;;;23.80;51.70;;;;;;5073570;28;20210;-57
2023/03/04 04:16:23;;;;;;;2.00;1.00;;;23.80;51.70;;;;;;5074001;28;20203;-56
2023/03/04 04:18:53;;;;;;;1.95;1.10;;;23.80;51.70;;;;;;5074025;28;20221;-60
2023/03/04 04:21:24;;;;;;;2.60;1.40;;;23.80;52.10;;;;;;5074110;28;20202;-54
2023/03/04 04:23:55;;;;;;;2.85;1.27;;;23.80;51.80;;;;;;5073785;28;20218;-59
2023/03/04 04:26:26;;;;;;;2.22;1.13;;;23.80;51.90;;;;;;5073685;28;20671;-53
2023/03/04 04:28:58;;;;;;;2.28;1.08;;;23.80;51.80;;;;;;5073262;28;20230;-57
2023/03/04 04:31:29;;;;;;;3.38;1.10;;;23.80;51.80;;;;;;5073654;28;20575;-57
2023/03/04 04:33:59;;;;;;;2.08;0.98;;;23.80;51.80;;;;;;5073522;28;20227;-50
2023/03/04 04:36:30;;;;;;;1.73;0.98;;;23.80;51.90;;;;;;5073866;28;20195;-57
2023/03/04 04:39:01;;;;;;;2.22;1.20;;;23.70;51.80;;;;;;5073293;28;20203;-54
2023/03/04 04:41:33;;;;;;;2.97;1.10;;;23.70;51.90;;;;;;5073843;28;20203;-60
2023/03/04 04:44:06;;;;;;;2.13;1.10;;;23.70;51.90;;;;;;5073808;28;20230;-55
2023/03/04 04:46:37;;;;;;;1.45;1.13;;;23.70;51.90;;;;;;5073732;28;20202;-58
2023/03/04 04:49:08;;;;;;;2.67;1.40;;;23.70;51.80;;;;;;5073465;28;20592;-60
2023/03/04 04:51:40;;;;;;;1.58;1.15;;;23.70;51.90;;;;;;5073485;28;20697;-57
2023/03/04 04:54:11;;;;;;;2.78;1.60;;;23.70;51.90;;;;;;5073021;28;20573;-58
2023/03/04 04:56:42;;;;;;;2.50;1.45;;;23.70;51.90;;;;;;5073393;28;20666;-58
2023/03/04 04:59:15;;;;;;;4.20;1.70;;;23.70;51.90;;;;;;5073348;28;20705;-58
2023/03/04 05:01:45;;;;;;;4.18;1.80;;;23.70;52.00;;;;;;5073420;28;20195;-58
2023/03/04 05:04:16;;;;;;;2.60;1.65;;;23.70;52.10;;;;;;5072769;28;20233;-58
2023/03/04 05:06:47;;;;;;;2.63;1.63;;;23.70;52.10;;;;;;5073018;28;20211;-58
2023/03/04 05:09:18;;;;;;;2.53;1.40;;;23.70;52.20;;;;;;5072784;28;20230;-59
2023/03/04 05:11:48;;;;;;;3.10;1.50;;;23.60;52.10;;;;;;5072744;28;20551;-58
2023/03/04 05:14:21;;;;;;;2.20;1.60;;;23.60;52.10;;;;;;5073296;28;20222;-58
2023/03/04 05:16:53;;;;;;;2.50;1.83;;;23.60;52.10;;;;;;5073039;28;20201;-60
2023/03/04 05:19:24;;;;;;;3.83;1.40;;;23.60;52.10;;;;;;5072505;28;20257;-62
2023/03/04 05:21:54;;;;;;;2.38;1.65;;;23.60;52.10;;;;;;5073084;28;20198;-60
2023/03/04 05:24:25;;;;;;;3.00;1.40;;;23.60;52.20;;;;;;5073100;28;20219;-61
2023/03/04 05:26:56;;;;;;;3.03;1.67;;;23.60;52.20;;;;;;5072517;28;20558;-60
2023/03/04 05:29:28;;;;;;;1.58;1.25;;;23.60;52.20;;;;;;5072996;28;20229;-59
2023/03/04 05:31:59;;;;;;;2.30;1.60;;;23.60;52.20;;;;;;5072513;28;20214;-60
2023/03/04 05:34:30;;;;;;;1.80;1.40;;;23.60;52.20;;;;;;5071879;28;20221;-60
2023/03/04 05:37:00;;;;;;;1.92;1.30;;;23.60;52.20;;;;;;5072666;28;20198;-60
2023/03/04 05:39:31;;;;;;;2.22;1.48;;;23.60;52.20;;;;;;5072869;28;20203;-59
2023/03/04 05:42:02;;;;;;;2.35;1.40;;;23.60;52.20;;;;;;5072485;28;20202;-59
2023/03/04 05:44:34;;;;;;;4.63;1.83;;;23.50;52.10;;;;;;5072244;28;20215;-58
2023/03/04 05:47:05;;;;;;;2.63;1.60;;;23.50;52.10;;;;;;5072443;28;20562;-58
2023/03/04 05:49:36;;;;;;;3.50;1.40;;;23.50;52.20;;;;;;5072403;28;20226;-60
2023/03/04 05:52:06;;;;;;;3.47;1.60;;;23.50;52.20;;;;;;5072304;28;20195;-59
2023/03/04 05:54:37;;;;;;;2.25;1.48;;;23.50;52.20;;;;;;5072208;28;20219;-58
2023/03/04 05:57:08;;;;;;;4.43;1.55;;;23.50;52.20;;;;;;5071989;28;20222;-60
2023/03/04 05:59:40;;;;;;;2.47;1.40;;;23.50;52.20;;;;;;5072146;28;20209;-60
2023/03/04 06:02:11;;;;;;;2.83;1.67;;;23.50;52.20;;;;;;5072043;28;20198;-60
2023/03/04 06:04:41;;;;;;;3.60;1.63;;;23.50;52.20;;;;;;5072174;28;20588;-60
2023/03/04 06:07:12;;;;;;;1.92;1.40;;;23.50;52.20;;;;;;5071988;28;20191;-59
2023/03/04 06:09:44;;;;;;;3.28;1.70;;;23.40;52.20;;;;;;5071706;28;20602;-59
2023/03/04 06:12:14;;;;;;;2.42;1.25;;;23.40;52.10;;;;;;5071564;28;20274;-59
2023/03/04 06:14:47;;;;;;;2.47;1.40;;;23.40;52.20;;;;;;5072112;28;20219;-60
2023/03/04 06:17:18;;;;;;;3.58;1.50;;;23.40;52.20;;;;;;5072246;28;20202;-60
2023/03/04 06:19:48;;;;;;;2.28;1.45;;;23.40;52.10;;;;;;5072253;28;20195;-59
2023/03/04 06:22:19;;;;;;;2.22;1.45;;;23.40;52.20;;;;;;5072281;28;20655;-57
2023/03/04 06:24:50;;;;;;;2.15;1.33;;;23.40;52.10;;;;;;5071886;28;20237;-59
2023/03/04 06:27:20;;;;;;;2.28;1.30;;;23.40;52.20;;;;;;5071350;28;20194;-60
2023/03/04 06:29:53;;;;;;;2.75;1.30;;;23.40;52.20;;;;;;5071198;28;20725;-60
2023/03/04 06:32:24;;;;;;;2.17;1.23;;;23.40;52.20;;;;;;5071899;28;20218;-60
2023/03/04 06:34:55;;;;;;;2.58;1.27;;;23.40;52.20;;;;;;5071177;28;20219;-59
2023/03/04 06:37:25;;;;;;;1.83;1.30;;;23.30;52.20;;;;;;5072041;28;20198;-60
2023/03/04 06:39:56;;;;;;;3.00;1.50;;;23.30;52.20;;;;;;5071531;28;20207;-60
2023/03/04 06:42:27;;;;;;;2.58;1.45;;;23.30;52.20;;;;;;5071657;28;20230;-60
2023/03/04 06:44:59;;;;;;;2.10;1.42;;;23.30;52.20;;;;;;5070974;28;20694;-60
2023/03/04 06:47:30;;;;;;;1.90;1.10;;;23.30;52.20;;;;;;5070901;28;20206;-59
2023/03/04 06:50:01;;;;;;;3.30;1.30;;;23.30;52.20;;;;;;5071209;28;20225;-60
2023/03/04 06:52:32;;;;;;;2.53;1.48;;;23.30;52.20;;;;;;5071416;28;20191;-59
2023/03/04 06:55:03;;;;;;;3.90;1.73;;;23.30;52.20;;;;;;5071264;28;20215;-60
2023/03/04 06:57:33;;;;;;;1.67;1.20;;;23.30;52.20;;;;;;5071595;28;20225;-60
2023/03/04 07:00:07;;;;;;;2.67;1.42;;;23.30;52.20;;;;;;5071538;28;20202;-60
2023/03/04 07:02:38;;;;;;;2.75;1.33;;;23.30;52.90;;;;;;5071558;28;20689;-60
2023/03/04 07:05:09;;;;;;;2.90;1.40;;;23.20;52.30;;;;;;5071015;28;20226;-60
2023/03/04 07:07:40;;;;;;;2.85;1.48;;;23.20;52.30;;;;;;5070853;28;20195;-60
2023/03/04 07:10:11;;;;;;;2.53;1.38;;;23.20;52.30;;;;;;5071190;28;20233;-60
2023/03/04 07:12:42;;;;;;;2.72;1.23;;;23.20;52.30;;;;;;5071697;28;20202;-60
2023/03/04 07:15:15;;;;;;;3.25;1.23;;;23.20;52.30;;;;;;5071196;28;20199;-60
2023/03/04 07:17:45;;;;;;;2.30;1.30;;;23.20;52.30;;;;;;5071265;28;20190;-60
2023/03/04 07:20:16;;;;;;;2.20;1.30;;;23.20;52.30;;;;;;5070979;28;20195;-59
2023/03/04 07:22:47;;;;;;;2.20;1.20;;;23.10;52.30;;;;;;5071251;28;20195;-60
2023/03/04 07:25:18;;;;;;;1.45;1.13;;;23.10;52.30;;;;;;5070596;28;20658;-60
2023/03/04 07:27:49;;;;;;;2.00;1.23;;;23.10;52.30;;;;;;5071229;28;20230;-60
2023/03/04 07:30:22;;;;;;;2.80;1.38;;;23.20;52.30;;;;;;5071110;28;20230;-59
2023/03/04 07:32:53;;;;;;;3.95;1.52;;;23.10;52.30;;;;;;5070923;28;20195;-60
2023/03/04 07:35:23;;;;;;;3.33;1.30;;;23.10;52.30;;;;;;5070480;28;20201;-59
2023/03/04 07:37:54;;;;;;;2.38;1.20;;;23.10;52.30;;;;;;5070895;28;20205;-59
2023/03/04 07:40:25;;;;;;;3.25;1.60;;;23.10;52.30;;;;;;5070758;28;20214;-60
2023/03/04 07:42:56;;;;;;;2.63;1.25;;;23.10;52.40;;;;;;5070647;28;20195;-60
2023/03/04 07:45:29;;;;;;;2.50;1.23;;;23.10;52.30;;;;;;5070248;28;20567;-60
2023/03/04 07:48:01;;;;;;;5.38;1.45;;;23.10;52.30;;;;;;5074274;28;20209;-60
2023/03/04 07:50:32;;;;;;;2.60;1.15;;;23.00;52.30;;;;;;5074601;28;20201;-61
2023/03/04 07:53:02;;;;;;;3.85;1.75;;;23.00;52.30;;;;;;5074262;28;20219;-60
2023/03/04 07:55:33;;;;;;;2.80;1.58;;;23.00;52.30;;;;;;5074325;28;20646;-60
2023/03/04 07:58:04;;;;;;;2.28;1.25;;;23.00;52.30;;;;;;5074921;28;20683;-60
2023/03/04 08:00:36;;;;;;;2.83;1.35;;;23.00;52.30;;;;;;5074713;28;20206;-60
2023/03/04 08:03:07;;;;;;;2.97;1.35;;;23.00;52.30;;;;;;5073765;28;20277;-60
2023/03/04 08:05:40;;;;;;;2.72;1.40;;;23.00;52.40;;;;;;5073338;28;20198;-59
2023/03/04 08:08:11;;;;;;;3.72;1.52;;;23.00;52.40;;;;;;5074580;28;20317;-60
2023/03/04 08:10:41;;;;;;;2.92;1.23;;;23.00;52.30;;;;;;5074183;28;20460;-59
2023/03/04 08:13:12;;;;;;;2.75;1.30;;;22.90;52.30;;;;;;5074556;28;20218;-60
2023/03/04 08:15:47;;;;;;;2.50;1.40;;;22.90;52.40;;;;;;5074348;28;20501;-59
2023/03/04 08:18:18;;;;;;;1.55;1.10;;;22.90;52.30;;;;;;5073637;28;20198;-59
2023/03/04 08:20:49;;;;;;;3.17;1.30;;;22.90;52.40;;;;;;5073040;28;20202;-60
2023/03/04 08:23:19;;;;;;;2.20;1.33;;;22.90;52.40;;;;;;5073623;28;20223;-59
2023/03/04 08:25:50;;;;;;;2.55;1.27;;;22.90;52.40;;;;;;5074080;28;20546;-60
2023/03/04 08:28:21;;;;;;;2.45;1.02;;;22.90;52.40;;;;;;5073765;28;20217;-61
2023/03/04 08:30:57;;;;;;;4.00;1.50;;;22.90;52.50;;;;;;5073502;28;20195;-62
2023/03/04 08:33:28;;;;;;;1.75;1.25;;;22.90;52.70;;;;;;5073845;28;20226;-58
2023/03/04 08:35:59;;;;;;;2.60;1.23;;;22.90;52.70;;;;;;5074224;28;20210;-58
2023/03/04 08:38:30;;;;;;;3.15;1.38;;;22.90;52.70;;;;;;5073957;28;20198;-59
2023/03/04 08:41:01;;;;;;;2.13;1.35;;;22.90;52.70;;;;;;5074114;28;20683;-60
2023/03/04 08:43:32;;;;;;;1.83;1.27;;;22.80;52.60;;;;;;5073777;28;20226;-61
2023/03/04 08:46:05;;;;;;;3.00;1.50;;;22.90;52.70;;;;;;5073941;28;20198;-62
2023/03/04 08:48:36;;;;;;;2.78;1.30;;;22.80;52.70;;;;;;5073657;28;20203;-61
2023/03/04 08:51:11;;;;;;;2.25;1.40;;;22.80;52.60;;;;;;5073694;28;20199;-60
2023/03/04 08:53:41;;;;;;;1.58;1.10;;;22.90;52.70;;;;;;5073197;28;20218;-60
2023/03/04 08:56:13;;;;;;;2.00;1.20;;;22.90;52.70;;;;;;5073361;28;20198;-58
2023/03/04 08:58:43;;;;;;;4.53;1.52;;;22.80;52.60;;;;;;5073256;28;20202;-59
2023/03/04 09:01:16;;;;;;;3.13;1.38;;;22.80;52.60;;;;;;5073548;28;20198;-59
2023/03/04 09:03:47;;;;;;;1.95;1.20;;;22.80;52.60;;;;;;5051743;28;20231;-57
2023/03/04 09:06:19;;;;;;;3.30;1.30;;;22.80;52.60;;;;;;5051155;28;20203;-59
2023/03/04 09:08:49;;;;;;;2.13;1.30;;;22.80;52.60;;;;;;5056048;28;20226;-60
2023/03/04 09:11:20;;;;;;;1.98;1.00;;;22.80;53.30;;;;;;5068936;28;20210;-60
2023/03/04 09:13:51;;;;;;;2.13;1.17;;;22.80;52.70;;;;;;5071122;28;20762;-59
2023/03/04 09:16:24;;;;;;;2.88;1.35;;;22.70;52.60;;;;;;5070783;28;20267;-59
2023/03/04 09:18:55;;;;;;;3.00;1.60;;;22.80;52.70;;;;;;5070170;28;20198;-60
2023/03/04 09:21:26;;;;;;;1.75;1.20;;;22.70;52.60;;;;;;5070278;28;20194;-59
2023/03/04 09:23:56;;;;;;;2.60;1.27;;;22.70;52.60;;;;;;5050621;28;20269;-55
2023/03/04 09:26:28;;;;;;;1.73;1.13;;;22.70;52.60;;;;;;5063517;28;20199;-55
2023/03/04 09:29:01;;;;;;;1.83;1.30;;;22.70;52.60;;;;;;5069048;28;20214;-57
2023/03/04 09:31:33;;;;;;;3.25;1.40;;;22.70;52.60;;;;;;5050691;28;20557;-58
2023/03/04 09:34:04;;;;;;;3.25;1.30;;;22.60;52.60;;;;;;5050309;28;20328;-57
2023/03/04 09:36:34;;;;;;;2.58;1.33;;;22.70;52.60;;;;;;5050178;28;20203;-57
2023/03/04 09:39:06;;;;;;;2.17;1.08;;;22.60;52.50;;;;;;5049740;28;20206;-57
2023/03/04 09:41:41;;;;;;;2.40;1.08;;;22.60;52.60;;;;;;5050912;28;20204;-57
2023/03/04 09:44:23;;;;;;;1.65;1.10;;;22.60;52.60;;;;;;5069829;28;20214;-59
2023/03/04 09:46:57;;;;;;;1.38;0.98;;;22.60;52.50;;;;;;5069991;28;20242;-58
2023/03/04 09:49:28;;;;;;;1.45;1.10;;;22.60;52.60;;;;;;5070254;28;20253;-58
2023/03/04 09:52:04;;;;;;;2.22;1.20;;;22.60;52.60;;;;;;5069725;28;20203;-58
2023/03/04 09:55:01;;;;;;;2.20;1.27;;;22.60;52.60;;;;;;5069277;28;20976;-55
2023/03/04 09:57:55;;;;;;;1.77;0.80;;;22.60;52.60;;;;;;5069875;28;20202;-58
2023/03/04 10:00:32;;;;;;;1.50;1.10;;;22.60;52.60;;;;;;5069411;28;20329;-55
2023/03/04 10:03:15;;;;;;;2.35;1.08;;;22.60;52.50;;;;;;5069545;28;20198;-57
2023/03/04 10:05:55;;;;;;;2.45;1.10;;;22.50;52.50;;;;;;5050209;28;20224;-57
2023/03/04 10:08:43;;;;;;;1.83;0.98;;;22.50;52.50;;;;;;5049470;28;20280;-58
2023/03/04 10:11:17;;;;;;;2.03;1.35;;;22.50;52.50;;;;;;5047892;28;20195;-55
2023/03/04 10:14:06;;;;;;;2.08;1.10;;;22.50;52.50;;;;;;5061714;28;20210;-57
2023/03/04 10:16:41;;;;;;;1.75;0.98;;;22.50;52.50;;;;;;5071945;28;20563;-59
2023/03/04 10:19:35;;;;;;;2.13;0.98;;;22.50;52.50;;;;;;5071951;28;20210;-60
2023/03/04 10:22:18;;;;;;;1.67;1.20;;;22.50;52.50;;;;;;5072082;28;20655;-56
2023/03/04 10:24:49;;;;;;;2.25;1.23;;;22.50;52.50;;;;;;5071355;28;20219;-56
2023/03/04 10:27:22;;;;;;;2.08;1.00;;;22.40;52.50;;;;;;5071680;28;20206;-59
2023/03/04 10:29:53;;;;;;;1.83;1.15;;;22.50;52.50;;;;;;5072325;28;20215;-55
2023/03/04 10:32:24;;;;;;;1.80;1.17;;;22.40;53.10;;;;;;5072074;28;20194;-60
2023/03/04 10:34:56;;;;;;;1.33;0.90;;;22.40;52.50;;;;;;5071623;28;20219;-60
2023/03/04 10:37:44;;;;;;;2.60;1.00;;;22.40;52.50;;;;;;5071819;28;20682;-59
2023/03/04 10:40:25;;;;;;;1.33;1.10;;;22.40;52.50;;;;;;5071181;28;20207;-60
2023/03/04 10:42:57;;;;;;;1.73;0.90;;;22.40;52.50;;;;;;5071323;28;20201;-58
2023/03/04 10:45:34;;;;;;;1.52;1.00;;;22.40;52.50;;;;;;5071716;28;20286;-59
2023/03/04 10:48:04;;;;;;;1.58;1.10;;;22.40;52.50;;;;;;5071718;28;20205;-57
2023/03/04 10:50:37;;;;;;;1.65;1.08;;;22.40;52.50;;;;;;5071877;28;20222;-57
2023/03/04 10:53:24;;;;;;;1.58;1.05;;;22.40;52.50;;;;;;5071239;28;20225;-57
2023/03/04 10:55:55;;;;;;;1.45;1.00;;;22.40;52.50;;;;;;5053397;28;20195;-59
2023/03/04 10:58:25;;;;;;;1.25;1.08;;;22.40;52.50;;;;;;5071292;28;20206;-57
2023/03/04 11:01:05;;;;;;;1.38;1.10;;;22.40;52.40;;;;;;5071376;28;20203;-59
2023/03/04 11:03:37;;;;;;;1.55;0.93;;;22.40;52.50;;;;;;5071476;28;20233;-58
2023/03/04 11:06:17;;;;;;;1.30;0.93;;;22.40;52.50;;;;;;5071645;28;20202;-58
2023/03/04 11:08:56;;;;;;;1.52;0.90;;;22.30;52.40;;;;;;5071499;28;20259;-59
2023/03/04 11:11:33;;;;;;;1.45;0.90;;;22.30;52.50;;;;;;5071077;28;20309;-59
2023/03/04 11:14:07;;;;;;;1.10;1.00;;;22.30;52.40;;;;;;5055972;28;20222;-58
2023/03/04 11:16:38;;;;;;;1.15;0.80;;;22.30;52.40;;;;;;5071135;28;20201;-59
2023/03/04 11:19:15;;;;;;;1.73;1.00;;;22.20;52.40;;;;;;5071238;28;20190;-58
2023/03/04 11:21:49;;;;;;;1.65;0.90;;;22.30;52.50;;;;;;5074425;28;20194;-60
2023/03/04 11:24:26;;;;;;;1.88;0.88;;;22.30;52.40;;;;;;5074746;28;20229;-60
2023/03/04 11:27:01;;;;;;;1.65;1.00;;;22.20;52.40;;;;;;5075051;28;20658;-59
2023/03/04 11:29:37;;;;;;;1.30;1.10;;;22.20;52.40;;;;;;5074786;28;20198;-59
2023/03/04 11:32:13;;;;;;;0.90;0.60;;;22.20;52.40;;;;;;5074242;28;20654;-60
2023/03/04 11:34:49;;;;;;;2.08;0.80;;;22.20;52.40;;;;;;5074532;28;20215;-55
2023/03/04 11:37:30;;;;;;;1.30;1.00;;;22.20;52.40;;;;;;5074887;28;20642;-59
2023/03/04 11:40:05;;;;;;;1.33;0.90;;;22.20;52.30;;;;;;5074876;28;20225;-59
2023/03/04 11:42:42;;;;;;;1.75;0.80;;;22.20;52.40;;;;;;5074982;28;20646;-59
2023/03/04 11:45:16;;;;;;;1.23;0.80;;;22.20;52.40;;;;;;5075028;28;20221;-58
2023/03/04 11:47:57;;;;;;;1.38;0.90;;;22.20;52.40;;;;;;5074955;28;20221;-58
2023/03/04 11:50:33;;;;;;;1.15;0.73;;;22.20;52.40;;;;;;5074495;28;20226;-59
2023/03/04 11:53:33;;;;;;;1.20;0.90;;;22.20;52.40;;;;;;5074221;28;20211;-59
2023/03/04 11:56:24;;;;;;;1.17;0.90;;;22.20;52.40;;;;;;5073962;28;20651;-60
2023/03/04 11:59:34;;;;;;;1.83;1.17;;;22.20;52.30;;;;;;5074214;28;20210;-59
2023/03/04 12:02:22;;;;;;;1.92;1.02;;;22.20;52.40;;;;;;5064243;28;20190;-59
2023/03/04 12:05:26;;;;;;;1.67;0.82;;;22.10;52.30;;;;;;5074368;28;20227;-59
2023/03/04 12:08:29;;;;;;;1.40;0.93;;;22.10;52.30;;;;;;5074738;28;20674;-59
2023/03/04 12:11:06;;;;;;;1.08;0.70;;;22.10;52.30;;;;;;5067219;28;20237;-59
2023/03/04 12:14:10;;;;;;;1.40;0.90;;;22.10;52.30;;;;;;5073973;28;20221;-58
2023/03/04 12:17:07;;;;;;;0.82;0.70;;;22.10;52.30;;;;;;5073815;28;20194;-57
2023/03/04 12:19:52;;;;;;;1.25;0.80;;;22.10;52.40;;;;;;5074009;28;20202;-58
2023/03/04 12:22:35;;;;;;;1.17;0.90;;;22.10;52.30;;;;;;5074077;28;20214;-57
2023/03/04 12:25:34;;;;;;;0.88;0.75;;;22.10;52.40;;;;;;5073992;28;20246;-58
2023/03/04 12:28:23;;;;;;;1.77;1.00;;;22.10;52.40;;;;;;5074304;28;20260;-59
2023/03/04 12:31:19;;;;;;;1.08;0.80;;;22.10;52.40;;;;;;5073878;28;20280;-57
2023/03/04 12:34:02;;;;;;;1.63;1.00;;;22.00;52.30;;;;;;5053135;28;20219;-59
2023/03/04 12:36:43;;;;;;;2.58;0.70;;;22.00;52.30;;;;;;5074011;28;20643;-59
2023/03/04 12:39:29;;;;;;;0.88;0.75;;;22.00;52.30;;;;;;5073808;28;20198;-59
2023/03/04 12:42:10;;;;;;;1.40;0.85;;;22.00;52.30;;;;;;5074093;28;20199;-56
2023/03/04 12:44:48;;;;;;;1.30;1.00;;;22.00;52.30;;;;;;5073146;28;20218;-57
2023/03/04 12:47:30;;;;;;;1.80;1.08;;;22.00;52.30;;;;;;5073387;28;20206;-58
2023/03/04 12:50:26;;;;;;;0.88;0.70;;;22.00;52.30;;;;;;5073337;28;20227;-59
2023/03/04 12:53:05;;;;;;;1.05;0.75;;;22.00;52.30;;;;;;5073469;28;20659;-59
2023/03/04 12:55:40;;;;;;;1.50;0.93;;;22.00;52.30;;;;;;5073654;28;20561;-57
2023/03/04 12:58:19;;;;;;;0.80;0.70;;;22.00;52.30;;;;;;5073276;28;20199;-56
2023/03/04 13:01:04;;;;;;;1.23;0.90;;;22.00;52.30;;;;;;5072827;28;20206;-56
2023/03/04 13:03:43;;;;;;;0.85;0.63;;;21.90;52.20;;;;;;5072989;28;20222;-59
2023/03/04 13:06:29;;;;;;;1.45;0.73;;;21.90;52.30;;;;;;5073340;28;20209;-56
2023/03/04 13:09:06;;;;;;;1.20;0.73;;;21.90;52.20;;;;;;5073052;28;20199;-58
2023/03/04 13:11:51;;;;;;;1.30;0.90;;;21.90;52.20;;;;;;5073474;28;20218;-57
2023/03/04 13:15:15;;;;;;;1.27;0.70;;;21.90;52.20;;;;;;5073533;28;20222;-60
2023/03/04 13:17:50;;;;;;;1.48;0.88;;;21.90;52.30;;;;;;5072363;28;20571;-59
2023/03/04 13:20:33;;;;;;;2.17;0.80;;;21.90;52.20;;;;;;5053611;28;20611;-59
2023/03/04 13:23:05;;;;;;;1.02;0.70;;;21.90;52.20;;;;;;5053262;28;20199;-59